Terminal Aerodrome Forecast
Issued by NWS Charleston, WV

Current Version | Previous Version | Graphics & Text | Print | Product List | Glossary On
Versions: 1 2 3 4 5 6 7 8 9 10 11 12 13 14 15 16 17 18 19 20 21 22 23
014
FTUS41 KRLX 291125
TAFBKW
TAF
KBKW 291125Z 2912/3012 01004KT P6SM SCT007 OVC013
      TEMPO 2912/2914 BKN007
     FM291600 36004KT P6SM BKN015
     FM292100 04007KT P6SM SCT150
     FM300300 10004KT P6SM SCT040
     FM300800 14008KT P6SM BKN020=

USA.gov is the U.S. government's official web portal to all federal, state and local government web resources and services.